createdAt,value
2022-11-24T00:01:31.572Z,39.30
2022-11-24T00:04:01.913Z,35.90
2022-11-24T00:06:32.050Z,31.10
2022-11-24T00:09:00.309Z,32.10
2022-11-24T00:11:31.379Z,33.10
2022-11-24T00:14:00.373Z,37.00
2022-11-24T00:16:30.747Z,44.20
2022-11-24T00:19:01.137Z,45.30
2022-11-24T00:21:30.971Z,37.00
2022-11-24T00:23:59.750Z,38.00
2022-11-24T00:26:33.247Z,44.50
2022-11-24T00:29:05.214Z,49.40
2022-11-24T00:31:36.128Z,40.30
2022-11-24T00:34:07.054Z,35.90
2022-11-24T00:36:36.680Z,43.70
2022-11-24T00:39:11.898Z,40.90
2022-11-24T00:41:41.647Z,44.00
2022-11-24T00:44:10.003Z,40.60
2022-11-24T00:46:38.681Z,40.90
2022-11-24T00:49:07.036Z,40.80
2022-11-24T00:51:35.195Z,47.30
2022-11-24T00:54:03.649Z,52.70
2022-11-24T00:56:31.723Z,53.20
2022-11-24T00:58:59.764Z,48.30
2022-11-24T01:01:31.276Z,45.20
2022-11-24T01:04:03.919Z,45.90
2022-11-24T01:06:32.849Z,43.00
2022-11-24T01:09:01.484Z,42.60
2022-11-24T01:11:55.283Z,35.50
2022-11-24T01:14:25.063Z,43.20
2022-11-24T01:16:53.825Z,39.20
2022-11-24T01:19:22.280Z,39.60
2022-11-24T01:21:51.191Z,32.00
2022-11-24T01:24:19.511Z,44.60
2022-11-24T01:26:47.716Z,40.10
2022-11-24T01:29:15.758Z,45.50
2022-11-24T01:31:43.801Z,33.00
2022-11-24T01:34:13.115Z,45.30
2022-11-24T01:36:41.293Z,45.50
2022-11-24T01:39:09.440Z,49.20
2022-11-24T01:41:37.599Z,45.70
2022-11-24T01:44:27.020Z,48.80
2022-11-24T01:47:32.993Z,36.40
2022-11-24T01:50:04.847Z,39.40
2022-11-24T01:52:53.935Z,35.10
2022-11-24T01:55:25.936Z,39.50
2022-11-24T01:57:59.656Z,43.20
2022-11-24T02:00:27.721Z,40.40
2022-11-24T02:02:59.247Z,40.70
2022-11-24T02:05:37.504Z,40.60
2022-11-24T02:08:11.141Z,35.20
2022-11-24T02:10:39.639Z,36.00
2022-11-24T02:13:07.739Z,41.20
2022-11-24T02:15:36.014Z,35.70
2022-11-24T02:18:04.295Z,41.80
2022-11-24T02:20:32.415Z,37.10
2022-11-24T02:23:15.762Z,41.80
2022-11-24T02:26:13.708Z,37.00
2022-11-24T02:28:41.908Z,36.80
2022-11-24T02:31:10.587Z,30.30
2022-11-24T02:33:39.130Z,34.80
2022-11-24T02:36:07.442Z,35.60
2022-11-24T02:38:36.250Z,35.60
2022-11-24T02:41:07.835Z,39.00
2022-11-24T02:43:41.649Z,31.80
2022-11-24T02:46:11.034Z,32.70
2022-11-24T02:48:39.240Z,32.20
2022-11-24T02:51:07.788Z,36.70
2022-11-24T02:53:35.827Z,31.20
2022-11-24T02:56:04.322Z,38.80
2022-11-24T02:58:32.462Z,31.50
2022-11-24T03:01:00.608Z,37.70
2022-11-24T03:03:28.772Z,39.40
2022-11-24T03:05:56.822Z,40.10
2022-11-24T03:08:24.906Z,43.40
2022-11-24T03:10:52.939Z,43.50
2022-11-24T03:13:20.957Z,38.50
2022-11-24T03:15:49.245Z,44.00
2022-11-24T03:18:17.787Z,43.00
2022-11-24T03:20:45.961Z,47.10
2022-11-24T03:23:14.427Z,39.00
2022-11-24T03:25:42.488Z,48.30
2022-11-24T03:28:10.498Z,46.80
2022-11-24T03:30:38.574Z,45.20
2022-11-24T03:33:07.372Z,46.50
2022-11-24T03:35:35.412Z,41.20
2022-11-24T03:38:03.549Z,43.30
2022-11-24T03:40:31.666Z,48.40
2022-11-24T03:43:00.683Z,45.20
2022-11-24T03:48:18.952Z,52.10
2022-11-24T03:50:56.305Z,42.30
2022-11-24T03:53:27.305Z,50.40
2022-11-24T03:55:56.272Z,53.90
2022-11-24T03:58:24.825Z,55.10
2022-11-24T04:00:54.077Z,53.10
2022-11-24T04:03:22.558Z,53.10
2022-11-24T04:05:50.750Z,53.80
2022-11-24T04:08:18.854Z,45.00
2022-11-24T04:10:53.292Z,46.00
2022-11-24T04:13:25.467Z,49.70
2022-11-24T04:15:54.258Z,50.80
2022-11-24T04:18:22.703Z,52.40
2022-11-24T04:20:51.672Z,42.10
2022-11-24T04:23:19.900Z,47.60
2022-11-24T04:25:48.035Z,44.70
2022-11-24T04:28:16.145Z,45.10
2022-11-24T04:30:45.140Z,42.90
2022-11-24T04:33:13.650Z,48.20
2022-11-24T04:35:41.716Z,51.20
2022-11-24T04:38:09.762Z,47.80
2022-11-24T04:40:38.643Z,51.10
2022-11-24T04:43:06.678Z,52.30
2022-11-24T04:45:34.874Z,48.50
2022-11-24T04:48:02.962Z,58.80
2022-11-24T04:50:31.129Z,61.40
2022-11-24T04:52:59.143Z,62.20
2022-11-24T04:55:27.202Z,51.00
2022-11-24T04:57:55.204Z,49.40
2022-11-24T05:00:23.319Z,47.90
2022-11-24T05:02:51.419Z,44.80
2022-11-24T05:05:19.458Z,51.20
2022-11-24T05:07:47.555Z,53.80
2022-11-24T05:10:34.973Z,57.80
2022-11-24T05:13:07.001Z,66.30
2022-11-24T05:15:37.960Z,60.60
2022-11-24T05:18:08.069Z,57.90
2022-11-24T05:20:36.495Z,57.90
2022-11-24T05:23:07.098Z,53.90
2022-11-24T05:25:35.675Z,67.80
2022-11-24T05:28:06.687Z,55.60
2022-11-24T05:30:34.878Z,63.60
2022-11-24T05:33:20.307Z,56.40
2022-11-24T05:35:49.558Z,57.90
2022-11-24T05:38:18.696Z,59.10
2022-11-24T05:40:46.983Z,58.70
2022-11-24T05:43:16.688Z,66.50
2022-11-24T05:45:45.474Z,58.90
2022-11-24T05:48:15.098Z,54.30
2022-11-24T05:50:43.357Z,48.90
2022-11-24T05:53:13.460Z,42.80
2022-11-24T05:55:41.584Z,49.40
2022-11-24T05:58:10.491Z,54.80
2022-11-24T06:00:39.807Z,45.70
2022-11-24T06:03:09.241Z,53.90
2022-11-24T06:05:38.364Z,52.20
2022-11-24T06:08:07.243Z,46.40
2022-11-24T06:10:35.308Z,51.30
2022-11-24T06:13:07.979Z,51.40
2022-11-24T06:15:37.890Z,50.50
2022-11-24T06:18:06.090Z,56.50
2022-11-24T06:20:34.288Z,65.40
2022-11-24T06:23:02.451Z,62.80
2022-11-24T06:25:31.312Z,67.30
2022-11-24T06:28:03.777Z,63.60
2022-11-24T06:30:32.121Z,63.10
2022-11-24T06:33:00.415Z,62.80
2022-11-24T06:35:28.826Z,63.30
2022-11-24T06:37:56.902Z,71.50
2022-11-24T06:40:24.944Z,55.40
2022-11-24T06:42:53.184Z,66.40
2022-11-24T06:45:21.882Z,78.50
2022-11-24T06:47:50.036Z,76.50
2022-11-24T06:50:18.274Z,80.40
2022-11-24T06:52:46.406Z,74.00
2022-11-24T06:55:14.544Z,65.30
2022-11-24T06:57:42.653Z,71.80
2022-11-24T07:00:11.624Z,72.80
2022-11-24T07:02:45.436Z,79.00
2022-11-24T07:05:14.947Z,63.30
2022-11-24T07:07:43.140Z,69.90
2022-11-24T07:10:11.272Z,61.00
2022-11-24T07:12:39.326Z,65.70
2022-11-24T07:15:08.544Z,67.60
2022-11-24T07:17:38.144Z,64.90
2022-11-24T07:20:08.712Z,53.20
2022-11-24T07:22:36.759Z,54.20
2022-11-24T07:25:07.519Z,58.90
2022-11-24T07:27:36.429Z,54.40
2022-11-24T07:30:04.817Z,59.80
2022-11-24T07:32:33.133Z,59.70
2022-11-24T07:35:01.184Z,62.60
2022-11-24T07:37:31.503Z,53.60
2022-11-24T07:40:00.208Z,51.70
2022-11-24T07:42:29.090Z,55.60
2022-11-24T07:44:57.301Z,45.50
2022-11-24T07:47:25.417Z,47.70
2022-11-24T07:49:53.605Z,43.70
2022-11-24T07:52:21.686Z,56.80
2022-11-24T07:54:49.778Z,44.40
2022-11-24T07:57:17.793Z,48.00
2022-11-24T07:59:45.895Z,44.20
2022-11-24T08:02:14.368Z,41.00
2022-11-24T08:04:43.488Z,44.40
2022-11-24T08:07:11.609Z,43.30
2022-11-24T08:09:39.760Z,49.20
2022-11-24T08:12:07.921Z,45.60
2022-11-24T08:14:36.375Z,47.60
2022-11-24T08:17:04.611Z,47.00
2022-11-24T08:19:32.884Z,52.10
2022-11-24T08:22:01.148Z,55.00
2022-11-24T08:24:29.246Z,54.70
2022-11-24T08:26:57.347Z,58.60
2022-11-24T08:29:29.797Z,60.90
2022-11-24T08:31:58.145Z,60.60
2022-11-24T08:34:29.054Z,57.50
2022-11-24T08:36:57.079Z,56.70
2022-11-24T08:39:25.502Z,67.90
2022-11-24T08:41:53.978Z,64.80
2022-11-24T08:44:22.786Z,54.40
2022-11-24T08:46:50.949Z,62.70
2022-11-24T08:49:19.119Z,56.40
2022-11-24T08:51:48.727Z,60.20
2022-11-24T08:54:18.949Z,58.20
2022-11-24T08:56:49.550Z,62.20
2022-11-24T08:59:18.466Z,61.40
2022-11-24T09:01:47.543Z,65.30
2022-11-24T09:04:16.323Z,66.70
2022-11-24T09:06:44.542Z,64.30
2022-11-24T09:09:12.951Z,65.00
2022-11-24T09:11:41.089Z,67.70
2022-11-24T09:14:09.267Z,72.20
2022-11-24T09:16:37.395Z,73.00
2022-11-24T09:19:08.221Z,67.70
2022-11-24T09:21:39.627Z,68.50
2022-11-24T09:24:09.857Z,74.90
2022-11-24T09:26:43.119Z,61.50
2022-11-24T09:31:42.634Z,64.70
2022-11-24T09:34:14.595Z,68.30
2022-11-24T09:36:43.531Z,62.60
2022-11-24T09:39:12.068Z,56.50
2022-11-24T09:42:17.844Z,70.00
2022-11-24T09:44:52.160Z,57.60
2022-11-24T09:47:55.348Z,64.50
2022-11-24T09:50:27.106Z,62.70
2022-11-24T09:53:12.690Z,58.70
2022-11-24T09:55:49.748Z,67.80
2022-11-24T09:58:38.912Z,63.40
2022-11-24T10:01:19.001Z,74.20
2022-11-24T10:03:52.478Z,64.00
2022-11-24T10:06:31.532Z,53.70
2022-11-24T10:09:21.648Z,58.70
2022-11-24T10:12:02.941Z,56.40
2022-11-24T10:15:19.245Z,54.90
2022-11-24T10:18:18.510Z,49.80
2022-11-24T10:21:14.502Z,45.20
2022-11-24T10:23:54.817Z,37.50
2022-11-24T10:26:31.700Z,42.70
2022-11-24T10:29:06.400Z,38.70
2022-11-24T10:31:37.758Z,38.60
2022-11-24T10:34:19.805Z,35.10
2022-11-24T10:37:12.710Z,36.20
2022-11-24T10:39:41.018Z,39.50
2022-11-24T10:42:15.395Z,38.20
2022-11-24T10:44:43.973Z,33.00
2022-11-24T10:47:22.978Z,32.70
2022-11-24T10:49:58.156Z,34.20
2022-11-24T10:52:31.677Z,38.60
2022-11-24T10:55:02.625Z,37.40
2022-11-24T10:57:34.006Z,38.50
2022-11-24T11:00:25.725Z,37.90
2022-11-24T11:03:26.953Z,39.50
2022-11-24T11:06:04.479Z,38.00
2022-11-24T11:08:32.717Z,37.10
2022-11-24T11:11:22.617Z,33.40
2022-11-24T11:14:02.937Z,31.50
2022-11-24T11:16:40.543Z,35.50
2022-11-24T11:19:49.888Z,27.80
2022-11-24T11:22:27.814Z,26.30
2022-11-24T11:25:08.119Z,26.30
2022-11-24T11:27:37.464Z,25.00
2022-11-24T11:36:11.494Z,28.30
2022-11-24T11:38:40.947Z,26.90
2022-11-24T11:41:22.568Z,28.20
2022-11-24T11:44:21.548Z,24.60
2022-11-24T11:46:49.911Z,25.00
2022-11-24T11:49:18.097Z,31.10
2022-11-24T11:52:14.127Z,33.90
2022-11-24T11:54:45.035Z,43.60
2022-11-24T11:57:22.044Z,28.10
2022-11-24T11:59:50.208Z,32.50
2022-11-24T12:02:41.345Z,30.20
2022-11-24T12:05:25.420Z,31.80
2022-11-24T12:08:23.619Z,32.00
2022-11-24T12:10:54.321Z,31.10
2022-11-24T12:13:56.875Z,26.60
2022-11-24T12:16:59.383Z,39.40
2022-11-24T12:19:35.940Z,37.40
2022-11-24T12:22:13.176Z,37.90
2022-11-24T12:24:57.207Z,37.50
2022-11-24T12:27:57.712Z,40.40
2022-11-24T12:30:30.099Z,36.90
2022-11-24T12:33:13.520Z,41.90
2022-11-24T12:35:47.647Z,48.10
2022-11-24T12:38:30.971Z,47.80
2022-11-24T12:41:43.977Z,42.00
2022-11-24T12:44:40.509Z,41.40
2022-11-24T12:47:27.447Z,37.80
2022-11-24T12:50:20.308Z,22.80
2022-11-24T12:52:58.787Z,20.90
2022-11-24T12:55:30.337Z,26.10
2022-11-24T12:58:20.447Z,21.40
2022-11-24T13:01:00.801Z,21.00
2022-11-24T13:03:49.757Z,21.60
2022-11-24T13:06:25.059Z,24.20
2022-11-24T13:08:54.109Z,29.30
2022-11-24T13:11:23.049Z,26.10
2022-11-24T13:14:13.639Z,26.40
2022-11-24T13:19:43.816Z,22.90
2022-11-24T13:22:25.870Z,31.00
2022-11-24T13:25:16.485Z,26.40
2022-11-24T13:27:48.721Z,24.00
2022-11-24T13:30:53.912Z,32.60
2022-11-24T13:33:31.585Z,27.60
2022-11-24T13:36:22.907Z,25.80
2022-11-24T13:38:50.980Z,20.40
2022-11-24T13:41:37.189Z,22.50
2022-11-24T13:44:14.887Z,19.40
2022-11-24T13:47:31.006Z,20.30
2022-11-24T13:50:00.490Z,24.20
2022-11-24T13:52:40.965Z,20.60
2022-11-24T13:55:11.815Z,21.70
2022-11-24T13:57:43.975Z,21.40
2022-11-24T14:00:32.123Z,24.90
2022-11-24T14:03:14.543Z,22.70
2022-11-24T14:05:49.300Z,24.90
2022-11-24T14:08:24.222Z,23.90
2022-11-24T14:10:54.746Z,19.20
2022-11-24T14:13:25.493Z,23.00
2022-11-24T14:16:02.744Z,22.20
2022-11-24T14:18:32.192Z,27.40
2022-11-24T14:21:16.580Z,24.70
2022-11-24T14:23:47.073Z,23.90
2022-11-24T14:26:21.454Z,27.40
2022-11-24T14:28:50.624Z,27.90
2022-11-24T14:31:25.228Z,26.90
2022-11-24T14:34:12.677Z,25.20
2022-11-24T14:36:41.198Z,28.00
2022-11-24T14:39:14.587Z,28.90
2022-11-24T14:41:51.663Z,30.80
2022-11-24T14:44:26.117Z,32.70
2022-11-24T14:47:06.523Z,32.60
2022-11-24T14:49:41.627Z,37.10
2022-11-24T14:52:15.790Z,35.80
2022-11-24T14:55:21.421Z,33.70
2022-11-24T14:57:49.859Z,43.70
2022-11-24T15:00:20.957Z,42.90
2022-11-24T15:02:55.428Z,34.20
2022-11-24T15:05:25.708Z,42.40
2022-11-24T15:08:03.060Z,38.20
2022-11-24T15:10:36.699Z,35.70
2022-11-24T15:13:18.165Z,40.00
2022-11-24T15:15:56.347Z,37.50
2022-11-24T15:18:35.662Z,47.20
2022-11-24T15:21:04.149Z,74.10
2022-11-24T15:23:33.969Z,44.90
2022-11-24T15:26:01.945Z,57.60
2022-11-24T15:28:31.404Z,50.40
2022-11-24T15:31:01.527Z,80.00
2022-11-24T15:33:30.571Z,42.30
2022-11-24T15:35:59.924Z,39.50
2022-11-24T15:38:28.218Z,33.70
2022-11-24T15:41:00.923Z,40.20
2022-11-24T15:43:38.910Z,38.50
2022-11-24T15:46:08.838Z,40.20
2022-11-24T15:48:37.162Z,41.90
2022-11-24T15:51:08.069Z,43.30
2022-11-24T15:53:48.506Z,41.60
2022-11-24T15:56:35.020Z,33.60
2022-11-24T15:59:03.944Z,32.00
2022-11-24T16:01:33.896Z,36.90
2022-11-24T16:04:02.730Z,35.00
2022-11-24T16:06:31.211Z,32.50
2022-11-24T16:08:59.536Z,32.40
2022-11-24T16:11:27.950Z,37.60
2022-11-24T16:13:56.155Z,38.20
2022-11-24T16:16:25.473Z,43.70
2022-11-24T16:18:53.734Z,42.30
2022-11-24T16:21:21.971Z,57.30
2022-11-24T16:23:50.108Z,42.90
2022-11-24T16:26:18.297Z,49.80
2022-11-24T16:28:46.448Z,50.30
2022-11-24T16:31:16.436Z,52.10
2022-11-24T16:33:45.427Z,42.60
2022-11-24T16:36:14.322Z,51.80
2022-11-24T16:38:42.434Z,49.80
2022-11-24T16:41:10.724Z,57.50
2022-11-24T16:43:38.970Z,57.80
2022-11-24T16:46:23.149Z,60.50
2022-11-24T16:49:00.179Z,54.40
2022-11-24T16:51:34.502Z,57.30
2022-11-24T16:54:03.849Z,46.70
2022-11-24T16:56:32.135Z,47.10
2022-11-24T16:59:00.279Z,45.10
2022-11-24T17:01:29.987Z,46.00
2022-11-24T17:03:59.283Z,49.60
2022-11-24T17:06:27.840Z,43.50
2022-11-24T17:08:56.029Z,48.40
2022-11-24T17:11:26.027Z,50.60
2022-11-24T17:13:56.327Z,49.00
2022-11-24T17:16:26.368Z,53.10
2022-11-24T17:18:54.717Z,53.60
2022-11-24T17:21:25.639Z,58.60
2022-11-24T17:23:55.742Z,54.50
2022-11-24T17:26:25.544Z,57.70
2022-11-24T17:28:54.877Z,53.10
2022-11-24T17:31:28.598Z,53.00
2022-11-24T17:33:58.711Z,59.40
2022-11-24T17:36:29.723Z,61.40
2022-11-24T17:39:00.193Z,63.70
2022-11-24T17:41:28.288Z,62.80
2022-11-24T17:43:56.758Z,75.60
2022-11-24T17:46:26.393Z,59.80
2022-11-24T17:48:55.400Z,57.00
2022-11-24T17:51:25.232Z,64.90
2022-11-24T17:53:55.002Z,66.90
2022-11-24T17:56:25.646Z,73.00
2022-11-24T17:58:59.969Z,64.30
2022-11-24T18:01:30.270Z,71.70
2022-11-24T18:03:58.810Z,63.40
2022-11-24T18:06:29.443Z,69.60
2022-11-24T18:08:58.430Z,63.20
2022-11-24T18:11:31.669Z,57.90
2022-11-24T18:14:03.421Z,62.50
2022-11-24T18:16:34.529Z,65.90
2022-11-24T18:19:09.177Z,59.90
2022-11-24T18:21:40.356Z,59.30
2022-11-24T18:24:09.545Z,56.40
2022-11-24T18:26:38.784Z,60.30
2022-11-24T18:29:06.897Z,64.30
2022-11-24T18:31:36.038Z,57.10
2022-11-24T18:34:06.083Z,59.90
2022-11-24T18:36:35.214Z,64.20
2022-11-24T18:39:05.339Z,65.80
2022-11-24T18:41:36.879Z,73.80
2022-11-24T18:44:08.254Z,60.40
2022-11-24T18:46:37.812Z,61.40
2022-11-24T18:49:07.364Z,64.20
2022-11-24T18:51:36.208Z,55.90
2022-11-24T18:54:05.649Z,64.10
2022-11-24T18:56:34.725Z,60.20
2022-11-24T18:59:02.933Z,63.60
2022-11-24T19:01:32.238Z,67.80
2022-11-24T19:04:05.519Z,54.70
2022-11-24T19:06:37.766Z,60.90
2022-11-24T19:09:09.237Z,54.80
2022-11-24T19:11:40.204Z,57.60
2022-11-24T19:14:19.446Z,51.20
2022-11-24T19:16:50.544Z,56.30
2022-11-24T19:19:18.630Z,61.10
2022-11-24T19:21:46.834Z,60.70
2022-11-24T19:24:14.919Z,63.90
2022-11-24T19:26:43.067Z,55.20
2022-11-24T19:29:11.439Z,53.80
2022-11-24T19:31:42.165Z,52.00
2022-11-24T19:34:10.706Z,44.60
2022-11-24T19:36:40.693Z,52.80
2022-11-24T19:39:14.684Z,46.40
2022-11-24T19:41:42.926Z,48.70
2022-11-24T19:44:11.923Z,47.20
2022-11-24T19:46:40.856Z,48.30
2022-11-24T19:49:09.198Z,49.90
2022-11-24T19:51:39.721Z,53.20
2022-11-24T19:54:13.393Z,56.60
2022-11-24T19:56:42.017Z,44.50
2022-11-24T19:59:13.068Z,54.60
2022-11-24T20:01:42.743Z,56.20
2022-11-24T20:04:15.117Z,50.80
2022-11-24T20:06:46.363Z,53.10
2022-11-24T20:09:25.050Z,50.10
2022-11-24T20:11:53.083Z,47.20
2022-11-24T20:14:22.152Z,43.40
2022-11-24T20:16:50.982Z,45.90
2022-11-24T20:19:19.142Z,48.30
2022-11-24T20:21:49.402Z,42.10
2022-11-24T20:24:23.432Z,38.30
2022-11-24T20:26:56.501Z,43.50
2022-11-24T20:29:25.251Z,42.60
2022-11-24T20:31:55.547Z,45.40
2022-11-24T20:34:28.458Z,46.60
2022-11-24T20:36:56.890Z,51.40
2022-11-24T20:39:27.886Z,44.90
2022-11-24T20:41:56.604Z,42.60
2022-11-24T20:44:26.826Z,34.60
2022-11-24T20:46:56.915Z,47.40
2022-11-24T20:49:26.019Z,34.10
2022-11-24T20:51:55.158Z,43.00
2022-11-24T20:54:23.853Z,48.40
2022-11-24T20:56:52.097Z,50.20
2022-11-24T20:59:22.783Z,47.00
2022-11-24T21:01:59.208Z,44.20
2022-11-24T21:04:27.626Z,45.40
2022-11-24T21:06:56.353Z,47.70
2022-11-24T21:09:25.101Z,45.30
2022-11-24T21:11:53.500Z,53.40
2022-11-24T21:14:21.771Z,53.90
2022-11-24T21:16:52.430Z,61.40
2022-11-24T21:19:21.285Z,61.70
2022-11-24T21:21:52.345Z,66.10
2022-11-24T21:24:23.174Z,66.20
2022-11-24T21:26:52.976Z,61.10
2022-11-24T21:29:23.733Z,80.10
2022-11-24T21:31:52.573Z,78.90
2022-11-24T21:34:20.918Z,86.90
2022-11-24T21:36:49.524Z,91.50
2022-11-24T21:39:19.285Z,86.70
2022-11-24T21:41:47.853Z,94.00
2022-11-24T21:44:16.093Z,92.70
2022-11-24T21:46:49.524Z,92.50
2022-11-24T21:49:19.361Z,95.00
2022-11-24T21:51:47.722Z,99.30
2022-11-24T21:54:15.779Z,97.50
2022-11-24T21:56:43.869Z,96.70
2022-11-24T21:59:13.107Z,113.80
2022-11-24T22:01:41.372Z,98.10
2022-11-24T22:04:09.795Z,92.90
2022-11-24T22:06:39.300Z,87.90
2022-11-24T22:09:07.536Z,83.70
2022-11-24T22:11:35.588Z,94.00
2022-11-24T22:14:03.725Z,88.00
2022-11-24T22:16:32.050Z,91.20
2022-11-24T22:19:00.861Z,92.50
2022-11-24T22:21:33.589Z,97.10
2022-11-24T22:24:02.529Z,96.90
2022-11-24T22:26:30.940Z,85.20
2022-11-24T22:28:59.869Z,100.50
2022-11-24T22:31:30.683Z,96.80
2022-11-24T22:34:00.710Z,105.40
2022-11-24T22:36:30.164Z,104.50
2022-11-24T22:39:03.354Z,107.60
2022-11-24T22:41:33.662Z,96.40
2022-11-24T22:44:02.375Z,85.40
2022-11-24T22:46:31.931Z,88.40
2022-11-24T22:49:01.838Z,75.20
2022-11-24T22:51:33.097Z,94.90
2022-11-24T22:54:03.651Z,75.00
2022-11-24T22:56:33.029Z,80.50
2022-11-24T22:59:02.740Z,80.60
2022-11-24T23:01:34.306Z,68.00
2022-11-24T23:04:03.913Z,69.80
2022-11-24T23:06:34.285Z,73.20
2022-11-24T23:09:04.377Z,66.10
2022-11-24T23:11:38.271Z,66.10
2022-11-24T23:14:11.861Z,81.00
2022-11-24T23:16:40.175Z,74.00
2022-11-24T23:19:09.716Z,72.70
2022-11-24T23:21:38.571Z,80.40
2022-11-24T23:24:08.696Z,93.20
2022-11-24T23:26:40.269Z,78.20
2022-11-24T23:29:10.407Z,63.90
2022-11-24T23:31:40.271Z,79.90
2022-11-24T23:34:08.983Z,85.90
2022-11-24T23:36:37.255Z,88.80
2022-11-24T23:39:07.333Z,92.10
2022-11-24T23:41:35.696Z,99.30
2022-11-24T23:44:03.888Z,67.70
2022-11-24T23:46:32.321Z,99.80
2022-11-24T23:49:00.525Z,88.80
2022-11-24T23:51:30.993Z,75.70
2022-11-24T23:54:02.627Z,92.30
2022-11-24T23:56:32.799Z,105.50
2022-11-24T23:59:02.980Z,81.00
